Time;durP1;ratioP1;P1;durP2;ratioP2;P2;SDS_P1;SDS_P2;PMS_P1;PMS_P2;Temp;Humidity;BMP_temperature;BMP_pressure;BME280_temperature;BME280_humidity;BME280_pressure;Samples;Min_cycle;Max_cycle;Signal;HPM_P1;HPM_P2
2023/05/09 02:00:33;;;;;;;6.55;3.05;;;;;;;;;;4927937;27;20114;-74
2023/05/09 02:03:01;;;;;;;4.72;3.10;;;;;;;;;;4315254;33;20067;-76
2023/05/09 02:05:27;;;;;;;5.30;3.10;;;;;;;;;;4313930;33;20450;-86
2023/05/09 02:07:56;;;;;;;4.47;3.22;;;;;;;;;;4313191;33;20052;-74
2023/05/09 02:10:26;;;;;;;6.82;3.80;;;;;;;;;;4283269;33;20418;-78
2023/05/09 02:12:53;;;;;;;3.47;2.72;;;;;;;;;;4252760;33;20492;-79
2023/05/09 02:15:20;;;;;;;5.72;2.72;;;;;;;;;;4254194;33;20030;-88
2023/05/09 02:17:46;;;;;;;4.70;2.70;;;;;;;;;;4251437;33;20128;-75
2023/05/09 02:20:13;;;;;;;8.20;3.17;;;;;;;;;;4254617;33;20045;-75
2023/05/09 02:22:40;;;;;;;3.83;2.95;;;;;;;;;;4253718;33;20058;-74
2023/05/09 02:25:07;;;;;;;7.25;4.57;;;;;;;;;;4255509;33;20035;-75
2023/05/09 02:27:33;;;;;;;3.97;2.87;;;;;;;;;;4251940;33;20463;-79
2023/05/09 02:30:07;;;;;;;4.40;2.70;;;;;;;;;;4253731;33;20117;-73
2023/05/09 02:32:35;;;;;;;4.82;2.80;;;;;;;;;;4252825;33;20050;-76
2023/05/09 02:35:08;;;;;;;6.62;3.35;;;;;;;;;;4253138;33;20038;-73
2023/05/09 02:37:35;;;;;;;3.42;2.90;;;;;;;;;;4251635;33;20532;-83
2023/05/09 02:40:02;;;;;;;9.57;3.62;;;;;;;;;;4253047;33;20348;-73
2023/05/09 02:42:29;;;;;;;6.82;3.70;;;;;;;;;;4266389;33;20503;-74
2023/05/09 02:44:55;;;;;;;7.20;3.53;;;;;;;;;;4308324;33;20464;-74
2023/05/09 02:47:21;;;;;;;5.10;3.20;;;;;;;;;;4279998;33;20088;-72
2023/05/09 02:49:47;;;;;;;7.37;4.20;;;;;;;;;;4264383;33;20029;-76
2023/05/09 02:52:14;;;;;;;6.18;2.47;;;;;;;;;;4267426;33;20095;-73
2023/05/09 02:54:40;;;;;;;6.82;3.33;;;;;;;;;;4267243;33;20037;-73
2023/05/09 02:57:06;;;;;;;5.60;3.70;;;;;;;;;;4268472;33;20139;-73
2023/05/09 02:59:32;;;;;;;4.90;3.42;;;;;;;;;;4268254;33;20061;-72
2023/05/09 03:01:59;;;;;;;7.78;3.95;;;;;;;;;;4264139;33;20058;-74
2023/05/09 03:04:26;;;;;;;6.55;3.37;;;;;;;;;;4267249;33;20041;-74
2023/05/09 03:06:52;;;;;;;5.43;3.25;;;;;;;;;;4267068;33;20050;-73
2023/05/09 03:09:19;;;;;;;6.07;3.33;;;;;;;;;;4266075;33;20118;-72
2023/05/09 03:11:45;;;;;;;4.75;3.95;;;;;;;;;;4267281;33;20058;-74
2023/05/09 03:14:13;;;;;;;7.45;3.47;;;;;;;;;;4222316;33;20105;-79
2023/05/09 03:16:40;;;;;;;8.63;3.83;;;;;;;;;;4224890;33;20333;-73
2023/05/09 03:19:07;;;;;;;7.32;4.93;;;;;;;;;;4232626;33;20512;-73
2023/05/09 03:21:33;;;;;;;7.87;3.47;;;;;;;;;;4248614;33;20494;-73
2023/05/09 03:23:59;;;;;;;6.03;3.80;;;;;;;;;;4252646;33;20053;-74
2023/05/09 03:26:25;;;;;;;9.05;3.75;;;;;;;;;;4250541;33;20068;-73
2023/05/09 03:28:59;;;;;;;7.18;4.07;;;;;;;;;;4254010;33;20068;-74
2023/05/09 03:31:25;;;;;;;8.48;4.25;;;;;;;;;;4252613;33;20064;-73
2023/05/09 03:33:51;;;;;;;7.05;3.92;;;;;;;;;;4252602;33;20902;-75
2023/05/09 03:36:18;;;;;;;5.97;3.83;;;;;;;;;;4250825;33;20058;-73
2023/05/09 03:38:44;;;;;;;5.82;3.53;;;;;;;;;;4264011;33;20491;-74
2023/05/09 03:41:11;;;;;;;8.57;4.30;;;;;;;;;;4281187;33;20547;-73
2023/05/09 03:43:38;;;;;;;9.55;4.05;;;;;;;;;;4265369;33;20045;-75
2023/05/09 03:46:05;;;;;;;5.53;3.53;;;;;;;;;;4266764;33;20054;-75
2023/05/09 03:48:31;;;;;;;4.57;3.45;;;;;;;;;;4263755;33;20091;-74
2023/05/09 03:50:58;;;;;;;8.05;4.87;;;;;;;;;;4288843;33;20075;-75
2023/05/09 03:53:25;;;;;;;6.47;4.15;;;;;;;;;;4294095;33;20348;-74
2023/05/09 03:55:52;;;;;;;13.38;4.82;;;;;;;;;;4294169;33;20037;-74
2023/05/09 03:58:19;;;;;;;12.18;4.75;;;;;;;;;;4293297;33;20045;-77
2023/05/09 04:00:46;;;;;;;11.88;4.85;;;;;;;;;;4294338;33;20069;-74
2023/05/09 04:03:13;;;;;;;12.35;4.15;;;;;;;;;;4276504;33;20063;-76
2023/05/09 04:05:40;;;;;;;10.55;5.28;;;;;;;;;;4263769;33;20041;-74
2023/05/09 04:08:06;;;;;;;13.25;4.18;;;;;;;;;;4262594;33;20071;-75
2023/05/09 04:10:33;;;;;;;10.35;4.22;;;;;;;;;;4256221;33;20042;-81
2023/05/09 04:13:00;;;;;;;7.62;4.95;;;;;;;;;;4259901;33;20088;-77
2023/05/09 04:15:26;;;;;;;8.27;4.40;;;;;;;;;;4275284;33;20067;-75
2023/05/09 04:17:53;;;;;;;6.55;4.47;;;;;;;;;;4286542;33;20059;-74
2023/05/09 04:20:20;;;;;;;6.68;4.70;;;;;;;;;;4297687;33;20210;-78
2023/05/09 04:22:46;;;;;;;11.12;4.45;;;;;;;;;;4290875;33;20055;-77
2023/05/09 04:25:15;;;;;;;8.60;3.40;;;;;;;;;;4294406;33;20061;-74
2023/05/09 04:27:42;;;;;;;14.13;5.00;;;;;;;;;;4293350;33;20045;-75
2023/05/09 04:30:09;;;;;;;7.82;4.03;;;;;;;;;;4288809;33;20438;-73
2023/05/09 04:32:35;;;;;;;9.35;3.70;;;;;;;;;;4280170;33;20459;-76
2023/05/09 04:35:02;;;;;;;5.97;3.75;;;;;;;;;;4277972;33;20453;-77
2023/05/09 04:37:31;;;;;;;10.52;3.50;;;;;;;;;;4301647;33;20044;-73
2023/05/09 04:39:58;;;;;;;4.10;3.45;;;;;;;;;;4309012;33;20075;-73
2023/05/09 04:42:25;;;;;;;8.23;4.60;;;;;;;;;;4307121;33;20052;-74
2023/05/09 04:44:51;;;;;;;8.60;4.55;;;;;;;;;;4307929;33;20084;-75
2023/05/09 04:47:18;;;;;;;13.35;4.53;;;;;;;;;;4306624;33;20467;-74
2023/05/09 04:49:44;;;;;;;5.85;3.05;;;;;;;;;;4310842;33;20057;-74
2023/05/09 04:52:10;;;;;;;8.82;3.17;;;;;;;;;;4311326;33;20352;-75
2023/05/09 04:54:36;;;;;;;7.30;3.28;;;;;;;;;;4279746;33;20097;-75
2023/05/09 04:57:05;;;;;;;8.02;3.05;;;;;;;;;;4279946;33;20974;-74
2023/05/09 04:59:32;;;;;;;6.10;3.33;;;;;;;;;;4277685;33;20383;-74
2023/05/09 05:01:59;;;;;;;5.80;3.15;;;;;;;;;;4278299;33;20132;-74
2023/05/09 05:04:25;;;;;;;6.80;3.37;;;;;;;;;;4279056;33;20034;-74
2023/05/09 05:06:51;;;;;;;12.70;3.75;;;;;;;;;;4265485;33;20067;-73
2023/05/09 05:09:18;;;;;;;6.50;3.42;;;;;;;;;;4265855;33;20104;-74
2023/05/09 05:11:45;;;;;;;4.70;3.22;;;;;;;;;;4250766;33;20315;-80
2023/05/09 05:14:11;;;;;;;5.55;4.07;;;;;;;;;;4252009;33;20062;-73
2023/05/09 05:16:38;;;;;;;8.25;4.18;;;;;;;;;;4251050;33;20043;-75
2023/05/09 05:19:04;;;;;;;13.32;3.30;;;;;;;;;;4250437;33;20054;-74
2023/05/09 05:21:32;;;;;;;5.72;3.50;;;;;;;;;;4251012;33;20045;-72
2023/05/09 05:23:58;;;;;;;7.72;4.55;;;;;;;;;;4248548;33;20391;-75
2023/05/09 05:26:24;;;;;;;6.97;3.20;;;;;;;;;;4259227;33;20093;-74
2023/05/09 05:28:54;;;;;;;8.15;3.70;;;;;;;;;;4253126;33;20099;-74
2023/05/09 05:31:20;;;;;;;5.57;3.15;;;;;;;;;;4258352;33;20270;-76
2023/05/09 05:33:47;;;;;;;6.68;3.58;;;;;;;;;;4275583;33;20474;-72
2023/05/09 05:36:13;;;;;;;7.43;3.25;;;;;;;;;;4279343;33;20933;-75
2023/05/09 05:38:41;;;;;;;11.35;4.07;;;;;;;;;;4290874;33;20096;-75
2023/05/09 05:41:10;;;;;;;8.88;4.18;;;;;;;;;;4293193;33;20037;-74
2023/05/09 05:43:37;;;;;;;10.30;3.87;;;;;;;;;;4292392;33;20049;-85
2023/05/09 05:46:04;;;;;;;6.05;3.00;;;;;;;;;;4293927;33;20053;-74
2023/05/09 05:48:32;;;;;;;6.82;3.60;;;;;;;;;;4278839;33;20198;-75
2023/05/09 05:50:58;;;;;;;8.68;3.55;;;;;;;;;;4279512;33;20089;-74
2023/05/09 05:53:25;;;;;;;10.75;5.28;;;;;;;;;;4264771;33;20219;-73
2023/05/09 05:55:51;;;;;;;3.72;2.97;;;;;;;;;;4263404;33;20093;-78
2023/05/09 05:58:18;;;;;;;8.07;3.12;;;;;;;;;;4263270;33;20053;-74
2023/05/09 06:00:44;;;;;;;6.37;3.60;;;;;;;;;;4264388;33;20091;-75
2023/05/09 06:03:13;;;;;;;5.45;3.97;;;;;;;;;;4236073;33;20098;-74
2023/05/09 06:05:43;;;;;;;5.72;2.72;;;;;;;;;;4225612;33;20175;-73
2023/05/09 06:08:10;;;;;;;10.05;3.00;;;;;;;;;;4247967;33;20066;-85
2023/05/09 06:10:36;;;;;;;4.12;2.90;;;;;;;;;;4250981;33;20139;-73
2023/05/09 06:13:02;;;;;;;4.97;2.40;;;;;;;;;;4250628;33;20038;-75
2023/05/09 06:15:28;;;;;;;8.00;2.87;;;;;;;;;;4260246;33;20086;-75
2023/05/09 06:17:55;;;;;;;6.47;2.60;;;;;;;;;;4258440;33;20062;-73
2023/05/09 06:20:21;;;;;;;3.60;2.47;;;;;;;;;;4265143;33;20388;-78
2023/05/09 06:22:47;;;;;;;5.97;2.65;;;;;;;;;;4268089;33;20054;-75
2023/05/09 06:25:13;;;;;;;5.97;2.40;;;;;;;;;;4269094;33;20075;-74
2023/05/09 06:27:39;;;;;;;9.82;2.22;;;;;;;;;;4241080;33;20043;-74
2023/05/09 06:30:06;;;;;;;3.20;2.08;;;;;;;;;;4252889;33;20075;-74
2023/05/09 06:32:32;;;;;;;11.63;2.55;;;;;;;;;;4250689;33;20425;-82
2023/05/09 06:34:58;;;;;;;4.57;2.83;;;;;;;;;;4255310;33;20400;-73
2023/05/09 06:37:25;;;;;;;6.30;2.28;;;;;;;;;;4267610;33;20412;-74
2023/05/09 06:39:51;;;;;;;10.85;2.00;;;;;;;;;;4266155;33;20258;-74
2023/05/09 06:42:17;;;;;;;7.03;2.67;;;;;;;;;;4267490;33;20064;-85
2023/05/09 06:44:43;;;;;;;3.03;2.47;;;;;;;;;;4265176;33;20042;-75
2023/05/09 06:47:10;;;;;;;4.07;2.30;;;;;;;;;;4267385;33;20088;-79
2023/05/09 06:49:36;;;;;;;4.85;1.98;;;;;;;;;;4268036;33;20053;-74
2023/05/09 06:52:02;;;;;;;6.65;2.22;;;;;;;;;;4267186;33;20087;-76
2023/05/09 06:54:28;;;;;;;3.25;2.75;;;;;;;;;;4237211;33;20030;-82
2023/05/09 06:56:54;;;;;;;3.35;1.98;;;;;;;;;;4236316;33;20114;-76
2023/05/09 06:59:20;;;;;;;3.10;1.95;;;;;;;;;;4224578;33;20564;-74
2023/05/09 07:01:47;;;;;;;1.85;1.75;;;;;;;;;;4223474;33;20051;-74
2023/05/09 07:04:13;;;;;;;7.72;2.12;;;;;;;;;;4226286;33;20404;-75
2023/05/09 07:06:39;;;;;;;9.18;1.80;;;;;;;;;;4252042;33;20172;-80
2023/05/09 07:09:05;;;;;;;1.90;1.80;;;;;;;;;;4266853;33;20132;-76
2023/05/09 07:11:34;;;;;;;4.78;1.87;;;;;;;;;;4267042;33;20072;-76
2023/05/09 07:14:01;;;;;;;4.43;2.03;;;;;;;;;;4256654;33;20436;-75
2023/05/09 07:16:28;;;;;;;4.32;2.08;;;;;;;;;;4276501;33;20379;-72
2023/05/09 07:18:54;;;;;;;9.98;2.42;;;;;;;;;;4278773;33;20041;-76
2023/05/09 07:21:21;;;;;;;3.97;1.95;;;;;;;;;;4281274;33;21040;-75
2023/05/09 07:23:47;;;;;;;13.02;2.85;;;;;;;;;;4281143;33;20479;-78
2023/05/09 07:26:13;;;;;;;4.65;1.67;;;;;;;;;;4259220;33;20488;-73
2023/05/09 07:28:39;;;;;;;4.85;1.70;;;;;;;;;;4259225;33;20041;-74
2023/05/09 07:31:06;;;;;;;3.65;1.80;;;;;;;;;;4260385;33;20068;-72
2023/05/09 07:33:32;;;;;;;2.92;1.77;;;;;;;;;;4266181;33;20057;-75
2023/05/09 07:35:59;;;;;;;4.65;1.67;;;;;;;;;;4288821;33;20065;-74
2023/05/09 07:38:25;;;;;;;5.43;1.80;;;;;;;;;;4297823;33;20426;-74
2023/05/09 07:40:54;;;;;;;2.20;2.00;;;;;;;;;;4293543;33;20067;-86
2023/05/09 07:43:20;;;;;;;4.25;2.17;;;;;;;;;;4294204;33;20059;-74
2023/05/09 07:45:47;;;;;;;2.87;2.00;;;;;;;;;;4294641;33;20855;-76
2023/05/09 07:48:12;;;;;;;2.30;1.73;;;;;;;;;;4275196;33;20072;-75
2023/05/09 07:50:39;;;;;;;1.87;1.77;;;;;;;;;;4280084;33;20058;-74
2023/05/09 07:53:05;;;;;;;8.98;1.75;;;;;;;;;;4273236;33;20046;-84
2023/05/09 07:55:31;;;;;;;4.07;1.30;;;;;;;;;;4275832;33;20092;-80
2023/05/09 07:57:57;;;;;;;4.53;1.87;;;;;;;;;;4289195;33;20176;-74
2023/05/09 08:00:24;;;;;;;3.28;1.80;;;;;;;;;;4291434;33;20478;-72
2023/05/09 08:02:50;;;;;;;3.60;2.45;;;;;;;;;;4292117;33;20067;-75
2023/05/09 08:05:16;;;;;;;3.78;2.45;;;;;;;;;;4285979;33;20082;-79
2023/05/09 08:07:42;;;;;;;3.40;1.98;;;;;;;;;;4288122;33;20036;-74
2023/05/09 08:10:09;;;;;;;3.50;2.28;;;;;;;;;;4293024;33;20069;-75
2023/05/09 08:12:35;;;;;;;4.82;2.20;;;;;;;;;;4289489;33;20046;-75
2023/05/09 08:15:01;;;;;;;5.43;2.35;;;;;;;;;;4293445;33;20096;-75
2023/05/09 08:17:28;;;;;;;8.25;2.30;;;;;;;;;;4293892;33;20044;-74
2023/05/09 08:19:54;;;;;;;2.03;1.83;;;;;;;;;;4294501;33;20164;-75
2023/05/09 08:22:20;;;;;;;5.15;1.98;;;;;;;;;;4301449;33;20088;-75
2023/05/09 08:24:46;;;;;;;1.87;1.50;;;;;;;;;;4301597;33;20041;-72
2023/05/09 08:27:12;;;;;;;1.60;1.50;;;;;;;;;;4298663;33;20446;-73
2023/05/09 08:29:39;;;;;;;2.97;2.42;;;;;;;;;;4292460;33;20816;-73
2023/05/09 08:32:05;;;;;;;1.75;1.65;;;;;;;;;;4277092;33;20075;-75
2023/05/09 08:34:35;;;;;;;1.80;1.70;;;;;;;;;;4283283;33;20071;-73
2023/05/09 08:37:01;;;;;;;2.90;1.95;;;;;;;;;;4282976;33;20064;-74
2023/05/09 08:39:28;;;;;;;5.15;1.90;;;;;;;;;;4281167;33;20141;-75
2023/05/09 08:41:56;;;;;;;7.57;1.58;;;;;;;;;;4286921;33;20029;-73
2023/05/09 08:44:23;;;;;;;10.55;2.45;;;;;;;;;;4279963;33;20138;-74
2023/05/09 08:46:51;;;;;;;5.20;1.98;;;;;;;;;;4289224;33;20176;-73
2023/05/09 08:49:19;;;;;;;6.12;2.55;;;;;;;;;;4289903;33;20077;-75
2023/05/09 08:51:45;;;;;;;2.80;1.87;;;;;;;;;;4268198;33;20866;-73
2023/05/09 08:54:12;;;;;;;4.12;2.03;;;;;;;;;;4264431;33;20046;-79
2023/05/09 08:56:39;;;;;;;2.97;1.70;;;;;;;;;;4262647;33;20404;-74
2023/05/09 08:59:08;;;;;;;3.12;2.00;;;;;;;;;;4264871;33;20075;-74
2023/05/09 09:01:34;;;;;;;2.22;2.00;;;;;;;;;;4265443;33;20083;-74
2023/05/09 09:04:04;;;;;;;6.80;3.37;;;;;;;;;;4276503;33;20109;-76
2023/05/09 09:06:32;;;;;;;2.90;2.22;;;;;;;;;;4277324;33;20110;-72
2023/05/09 09:08:59;;;;;;;3.37;1.67;;;;;;;;;;4293369;33;20247;-73
2023/05/09 09:11:27;;;;;;;5.47;1.73;;;;;;;;;;4294513;33;20488;-74
2023/05/09 09:13:53;;;;;;;5.15;1.75;;;;;;;;;;4285137;33;20237;-75
2023/05/09 09:16:24;;;;;;;2.85;2.00;;;;;;;;;;4291576;33;20082;-79
2023/05/09 09:18:51;;;;;;;4.85;1.55;;;;;;;;;;4296337;33;20495;-73
2023/05/09 09:21:18;;;;;;;5.90;1.62;;;;;;;;;;4293763;33;20041;-74
2023/05/09 09:23:46;;;;;;;1.70;1.60;;;;;;;;;;4293612;33;20069;-74
2023/05/09 09:26:12;;;;;;;1.33;1.23;;;;;;;;;;4306313;33;20063;-78
2023/05/09 09:28:39;;;;;;;4.10;1.67;;;;;;;;;;4290843;33;20074;-74
2023/05/09 09:31:18;;;;;;;5.87;1.45;;;;;;;;;;4290143;33;20049;-75
2023/05/09 09:33:44;;;;;;;1.67;1.52;;;;;;;;;;4290092;33;20057;-71
2023/05/09 09:36:10;;;;;;;9.25;2.03;;;;;;;;;;4293830;33;20115;-73
2023/05/09 09:38:40;;;;;;;7.45;1.35;;;;;;;;;;4290998;33;20059;-72
2023/05/09 09:41:06;;;;;;;4.68;1.87;;;;;;;;;;4266054;33;20387;-72
2023/05/09 09:43:33;;;;;;;1.60;1.37;;;;;;;;;;4263229;33;20057;-73
2023/05/09 09:46:02;;;;;;;2.40;1.60;;;;;;;;;;4264175;33;20048;-71
2023/05/09 09:48:35;;;;;;;3.42;1.77;;;;;;;;;;4259313;33;20194;-75
2023/05/09 09:51:09;;;;;;;10.88;2.10;;;;;;;;;;4255857;33;20264;-73
2023/05/09 09:53:38;;;;;;;7.85;2.05;;;;;;;;;;4250337;33;20061;-71
2023/05/09 09:56:05;;;;;;;2.20;1.83;;;;;;;;;;4252397;33;20025;-71
2023/05/09 09:58:31;;;;;;;1.62;1.52;;;;;;;;;;4222801;33;20116;-72
2023/05/09 10:01:07;;;;;;;3.58;1.55;;;;;;;;;;4236796;33;20043;-76
2023/05/09 10:03:34;;;;;;;4.70;1.60;;;;;;;;;;4230155;33;20047;-73
2023/05/09 10:06:01;;;;;;;4.03;2.00;;;;;;;;;;4237733;33;20072;-70
2023/05/09 10:08:27;;;;;;;6.53;1.70;;;;;;;;;;4235213;33;20098;-73
2023/05/09 10:10:53;;;;;;;2.70;1.95;;;;;;;;;;4238707;33;20594;-72
2023/05/09 10:13:19;;;;;;;4.57;1.98;;;;;;;;;;4265706;33;20058;-71
2023/05/09 10:15:46;;;;;;;3.55;2.53;;;;;;;;;;4281303;33;20046;-71
2023/05/09 10:18:18;;;;;;;3.83;1.85;;;;;;;;;;4283244;33;20476;-72
2023/05/09 10:20:45;;;;;;;3.55;2.12;;;;;;;;;;4312419;33;20372;-73
2023/05/09 10:23:11;;;;;;;2.00;1.83;;;;;;;;;;4296300;33;20550;-71
2023/05/09 10:25:40;;;;;;;1.60;1.50;;;;;;;;;;4296948;33;20064;-71
2023/05/09 10:28:10;;;;;;;3.22;2.00;;;;;;;;;;4295329;33;20491;-78
2023/05/09 10:30:42;;;;;;;8.20;2.15;;;;;;;;;;4295160;33;20420;-70
2023/05/09 10:33:12;;;;;;;2.53;1.90;;;;;;;;;;4296300;33;20430;-71
2023/05/09 10:35:48;;;;;;;2.40;1.87;;;;;;;;;;4281082;33;20089;-71
2023/05/09 10:38:15;;;;;;;5.30;1.80;;;;;;;;;;4278156;33;20041;-72
2023/05/09 10:40:41;;;;;;;4.03;1.83;;;;;;;;;;4268608;33;20103;-71
2023/05/09 10:43:07;;;;;;;8.25;4.87;;;;;;;;;;4251945;33;20058;-72
2023/05/09 10:45:33;;;;;;;2.25;2.00;;;;;;;;;;4250808;33;20102;-73
2023/05/09 10:48:00;;;;;;;5.80;1.90;;;;;;;;;;4249984;33;20045;-71
2023/05/09 10:50:26;;;;;;;1.80;1.70;;;;;;;;;;4243813;33;20365;-72
2023/05/09 10:53:02;;;;;;;5.72;1.77;;;;;;;;;;4242303;33;20046;-72
2023/05/09 10:55:35;;;;;;;1.40;1.40;;;;;;;;;;4253111;33;20075;-72
2023/05/09 10:58:22;;;;;;;2.72;1.50;;;;;;;;;;4251608;33;20437;-77
2023/05/09 11:00:54;;;;;;;10.43;1.70;;;;;;;;;;4387751;28;21087;-75
2023/05/09 11:03:22;;;;;;;4.15;1.40;;;;;;;;;;4189609;34;20063;-74
2023/05/09 11:05:49;;;;;;;2.45;1.87;;;;;;;;;;4194232;34;20734;-74
2023/05/09 11:08:16;;;;;;;1.90;1.77;;;;;;;;;;4209225;34;20065;-72
2023/05/09 11:10:43;;;;;;;2.85;2.10;;;;;;;;;;4210967;33;20152;-71
2023/05/09 11:13:17;;;;;;;2.17;1.50;;;;;;;;;;4247342;33;20056;-77
2023/05/09 11:16:02;;;;;;;1.48;1.37;;;;;;;;;;4235238;33;20047;-72
2023/05/09 11:18:29;;;;;;;2.60;2.03;;;;;;;;;;4234787;33;20718;-72
2023/05/09 11:20:55;;;;;;;5.10;2.05;;;;;;;;;;4227531;33;20917;-72
2023/05/09 11:23:24;;;;;;;3.85;2.00;;;;;;;;;;4220971;33;20051;-73
2023/05/09 11:25:51;;;;;;;1.95;1.80;;;;;;;;;;4226376;33;20138;-70
2023/05/09 11:28:27;;;;;;;3.17;1.45;;;;;;;;;;4231700;33;20056;-78
2023/05/09 11:31:07;;;;;;;5.05;1.75;;;;;;;;;;4230907;33;20058;-72
2023/05/09 11:33:35;;;;;;;5.00;2.35;;;;;;;;;;4232548;33;20120;-77
2023/05/09 11:36:17;;;;;;;7.95;1.77;;;;;;;;;;4236148;33;20039;-72
2023/05/09 11:38:46;;;;;;;1.92;1.50;;;;;;;;;;4250751;33;20088;-72
2023/05/09 11:41:13;;;;;;;1.50;1.40;;;;;;;;;;4250182;33;20080;-71
2023/05/09 11:43:40;;;;;;;10.50;1.87;;;;;;;;;;4251979;33;20050;-73
2023/05/09 11:46:07;;;;;;;2.05;1.95;;;;;;;;;;4250482;33;20080;-73
2023/05/09 11:48:37;;;;;;;2.00;1.83;;;;;;;;;;4251284;33;20054;-75
2023/05/09 11:51:03;;;;;;;9.10;2.20;;;;;;;;;;4248363;33;20706;-78
2023/05/09 11:53:31;;;;;;;10.30;3.62;;;;;;;;;;4249965;33;20984;-73
2023/05/09 11:55:57;;;;;;;14.40;1.65;;;;;;;;;;4251095;33;20057;-71
2023/05/09 11:58:23;;;;;;;3.78;1.70;;;;;;;;;;4250706;33;20050;-72
2023/05/09 12:00:50;;;;;;;2.47;1.67;;;;;;;;;;4254694;33;20038;-72
2023/05/09 12:03:17;;;;;;;1.58;1.40;;;;;;;;;;4250000;33;20058;-80
2023/05/09 12:05:43;;;;;;;2.28;2.08;;;;;;;;;;4252220;33;21038;-73
2023/05/09 12:08:09;;;;;;;2.92;2.00;;;;;;;;;;4258704;33;20062;-73
2023/05/09 12:10:37;;;;;;;4.62;2.05;;;;;;;;;;4239799;33;20124;-70
2023/05/09 12:13:03;;;;;;;1.87;1.48;;;;;;;;;;4237777;33;20854;-79
2023/05/09 12:15:29;;;;;;;4.20;1.90;;;;;;;;;;4235711;33;20046;-70
2023/05/09 12:18:03;;;;;;;3.25;1.70;;;;;;;;;;4248983;33;20071;-71
2023/05/09 12:20:46;;;;;;;5.05;1.95;;;;;;;;;;4252984;33;20494;-69
2023/05/09 12:23:13;;;;;;;3.37;1.73;;;;;;;;;;4231277;33;20092;-71
2023/05/09 12:25:46;;;;;;;8.43;3.60;;;;;;;;;;4232798;33;20090;-74
2023/05/09 12:28:12;;;;;;;2.30;2.10;;;;;;;;;;4236639;33;20042;-71
2023/05/09 12:30:39;;;;;;;5.07;1.87;;;;;;;;;;4235553;33;20051;-72
2023/05/09 12:33:09;;;;;;;2.78;2.12;;;;;;;;;;4231714;33;20051;-81
2023/05/09 12:35:37;;;;;;;2.12;1.92;;;;;;;;;;4228222;33;20952;-73
2023/05/09 12:38:03;;;;;;;1.87;1.70;;;;;;;;;;4223203;33;20042;-70
2023/05/09 12:40:29;;;;;;;1.98;1.60;;;;;;;;;;4241278;33;20050;-74
2023/05/09 12:42:59;;;;;;;2.95;1.80;;;;;;;;;;4230243;33;20065;-74
2023/05/09 12:45:26;;;;;;;2.67;1.85;;;;;;;;;;4234137;33;20068;-75
2023/05/09 12:47:52;;;;;;;3.17;2.15;;;;;;;;;;4249198;33;20049;-77
2023/05/09 12:50:18;;;;;;;3.83;1.62;;;;;;;;;;4248864;33;20093;-74
2023/05/09 12:52:49;;;;;;;5.18;2.10;;;;;;;;;;4253808;33;20050;-74
2023/05/09 12:55:17;;;;;;;3.03;2.03;;;;;;;;;;4216990;33;20068;-81
2023/05/09 12:57:55;;;;;;;10.38;2.15;;;;;;;;;;4211843;34;20626;-73
2023/05/09 13:00:21;;;;;;;1.67;1.58;;;;;;;;;;4209700;34;20048;-76
2023/05/09 13:02:49;;;;;;;4.12;2.17;;;;;;;;;;4214113;33;20051;-73
2023/05/09 13:05:19;;;;;;;3.90;1.87;;;;;;;;;;4229682;33;20088;-75
2023/05/09 13:07:46;;;;;;;2.22;1.50;;;;;;;;;;4253527;33;20058;-76
2023/05/09 13:10:24;;;;;;;1.62;1.52;;;;;;;;;;4256992;33;20486;-72
2023/05/09 13:12:51;;;;;;;1.48;1.48;;;;;;;;;;4254196;33;20071;-74
2023/05/09 13:15:19;;;;;;;1.50;1.40;;;;;;;;;;4256870;33;21032;-74
2023/05/09 13:17:45;;;;;;;1.95;1.77;;;;;;;;;;4257399;33;20464;-74
2023/05/09 13:20:11;;;;;;;1.58;1.48;;;;;;;;;;4241038;33;20035;-74
2023/05/09 13:22:38;;;;;;;1.70;1.60;;;;;;;;;;4239054;33;20137;-73
2023/05/09 13:25:04;;;;;;;3.15;1.55;;;;;;;;;;4240198;33;20098;-75
2023/05/09 13:27:31;;;;;;;2.75;2.20;;;;;;;;;;4241579;33;20926;-74
2023/05/09 13:29:57;;;;;;;1.98;1.77;;;;;;;;;;4244033;33;20143;-74
2023/05/09 13:32:24;;;;;;;11.73;2.10;;;;;;;;;;4251751;33;20497;-74
2023/05/09 13:34:50;;;;;;;3.42;1.70;;;;;;;;;;4256187;33;20526;-74
2023/05/09 13:37:16;;;;;;;4.40;2.00;;;;;;;;;;4253195;33;20058;-73
2023/05/09 13:39:43;;;;;;;8.82;1.70;;;;;;;;;;4253461;33;20421;-73
2023/05/09 13:42:09;;;;;;;1.73;1.62;;;;;;;;;;4247502;33;20047;-74
2023/05/09 13:44:36;;;;;;;5.30;1.92;;;;;;;;;;4225012;33;20055;-73
2023/05/09 13:47:02;;;;;;;23.70;2.85;;;;;;;;;;4223212;33;20058;-74
2023/05/09 13:49:28;;;;;;;9.90;2.62;;;;;;;;;;4237992;33;20094;-74
2023/05/09 13:51:54;;;;;;;8.05;4.05;;;;;;;;;;4238103;33;20068;-73
2023/05/09 13:54:21;;;;;;;7.85;2.10;;;;;;;;;;4237025;33;20051;-73
2023/05/09 13:56:50;;;;;;;2.35;1.90;;;;;;;;;;4224993;33;20108;-75
2023/05/09 13:59:16;;;;;;;1.77;1.67;;;;;;;;;;4229488;33;20078;-73
2023/05/09 14:01:42;;;;;;;6.78;1.65;;;;;;;;;;4243265;33;20042;-73
2023/05/09 14:04:08;;;;;;;3.87;1.60;;;;;;;;;;4254449;33;20099;-73
2023/05/09 14:06:35;;;;;;;7.15;2.10;;;;;;;;;;4254683;33;20537;-73
2023/05/09 14:09:01;;;;;;;3.42;1.87;;;;;;;;;;4249297;33;20437;-72
2023/05/09 14:11:27;;;;;;;2.80;1.48;;;;;;;;;;4246495;33;20043;-73
2023/05/09 14:13:53;;;;;;;3.42;1.77;;;;;;;;;;4253313;33;20046;-73
2023/05/09 14:16:27;;;;;;;6.53;1.60;;;;;;;;;;4257915;33;20049;-76
2023/05/09 14:18:54;;;;;;;2.05;1.45;;;;;;;;;;4261068;33;20042;-72
2023/05/09 14:21:21;;;;;;;5.25;1.70;;;;;;;;;;4266981;33;20038;-76
2023/05/09 14:23:48;;;;;;;4.65;1.60;;;;;;;;;;4249153;33;20125;-73
2023/05/09 14:26:15;;;;;;;9.05;1.58;;;;;;;;;;4250928;33;20579;-77
2023/05/09 14:28:41;;;;;;;2.33;2.12;;;;;;;;;;4239472;33;20106;-75
2023/05/09 14:31:07;;;;;;;5.47;1.95;;;;;;;;;;4244429;33;20086;-74
2023/05/09 14:33:34;;;;;;;9.93;1.70;;;;;;;;;;4246184;33;20067;-74
2023/05/09 14:36:01;;;;;;;1.52;1.52;;;;;;;;;;4246832;33;20433;-76
2023/05/09 14:38:28;;;;;;;2.30;1.77;;;;;;;;;;4241053;33;20088;-74
2023/05/09 14:40:55;;;;;;;3.87;1.65;;;;;;;;;;4254469;33;20054;-74
2023/05/09 14:43:21;;;;;;;6.20;1.37;;;;;;;;;;4225081;33;20043;-75
2023/05/09 14:45:47;;;;;;;2.20;1.80;;;;;;;;;;4222923;33;20046;-74
2023/05/09 14:48:13;;;;;;;4.22;2.78;;;;;;;;;;4224664;34;20537;-74
2023/05/09 14:50:40;;;;;;;3.25;2.08;;;;;;;;;;4223945;33;20062;-76
2023/05/09 14:53:06;;;;;;;8.38;2.25;;;;;;;;;;4224171;34;20081;-74
2023/05/09 14:55:32;;;;;;;1.73;1.30;;;;;;;;;;4236080;33;20051;-75
2023/05/09 14:57:58;;;;;;;1.60;1.50;;;;;;;;;;4239195;33;20038;-74
2023/05/09 15:00:25;;;;;;;11.95;1.73;;;;;;;;;;4237879;33;20496;-73
2023/05/09 15:02:51;;;;;;;5.43;1.30;;;;;;;;;;4236826;33;20074;-79
2023/05/09 15:05:18;;;;;;;6.12;1.48;;;;;;;;;;4238673;33;20324;-76
2023/05/09 15:07:43;;;;;;;5.20;1.58;;;;;;;;;;4239098;33;20254;-75
2023/05/09 15:10:10;;;;;;;5.78;1.30;;;;;;;;;;4238808;33;20080;-74
2023/05/09 15:12:36;;;;;;;1.45;1.33;;;;;;;;;;4237309;33;20042;-78
2023/05/09 15:15:16;;;;;;;3.42;1.50;;;;;;;;;;4258835;33;20045;-75
2023/05/09 15:17:43;;;;;;;8.45;2.12;;;;;;;;;;4264576;33;20112;-75
2023/05/09 15:20:10;;;;;;;3.33;1.17;;;;;;;;;;4261545;33;20289;-76
2023/05/09 15:22:36;;;;;;;3.65;1.20;;;;;;;;;;4263335;33;20039;-77
2023/05/09 15:25:03;;;;;;;1.85;1.65;;;;;;;;;;4265507;33;20061;-75
2023/05/09 15:27:29;;;;;;;1.83;1.65;;;;;;;;;;4262085;33;20038;-73
2023/05/09 15:29:55;;;;;;;1.50;1.35;;;;;;;;;;4264086;33;20058;-73
2023/05/09 15:32:21;;;;;;;2.87;1.37;;;;;;;;;;4265817;33;20063;-74
2023/05/09 15:34:48;;;;;;;2.28;1.30;;;;;;;;;;4262388;33;20451;-75
2023/05/09 15:37:13;;;;;;;4.78;1.80;;;;;;;;;;4264944;33;20336;-75
2023/05/09 15:39:42;;;;;;;7.57;1.80;;;;;;;;;;4264992;33;20062;-74
2023/05/09 15:42:09;;;;;;;2.15;1.92;;;;;;;;;;4265413;33;20118;-75
2023/05/09 15:44:35;;;;;;;1.70;1.35;;;;;;;;;;4265449;33;20475;-74
2023/05/09 15:47:01;;;;;;;1.50;1.45;;;;;;;;;;4261926;33;20083;-74
2023/05/09 15:49:27;;;;;;;1.23;1.23;;;;;;;;;;4265358;33;20661;-72
2023/05/09 15:52:01;;;;;;;9.45;1.98;;;;;;;;;;4268995;33;20143;-72
2023/05/09 15:54:28;;;;;;;3.40;1.80;;;;;;;;;;4272877;33;20151;-73
2023/05/09 15:56:54;;;;;;;1.65;1.48;;;;;;;;;;4267438;33;20086;-75
2023/05/09 15:59:20;;;;;;;4.22;1.80;;;;;;;;;;4271812;33;20299;-73
2023/05/09 16:01:47;;;;;;;16.12;2.67;;;;;;;;;;4269224;33;20053;-73
2023/05/09 16:04:13;;;;;;;5.65;2.00;;;;;;;;;;4266969;33;20054;-75
2023/05/09 16:06:39;;;;;;;3.45;1.52;;;;;;;;;;4266701;33;20061;-74
2023/05/09 16:09:05;;;;;;;2.70;1.48;;;;;;;;;;4265546;33;20072;-75
2023/05/09 16:11:32;;;;;;;10.30;1.75;;;;;;;;;;4267672;33;20050;-78
2023/05/09 16:13:58;;;;;;;1.73;1.62;;;;;;;;;;4268674;33;20096;-71
2023/05/09 16:16:30;;;;;;;4.80;1.50;;;;;;;;;;4268692;33;20067;-71
2023/05/09 16:18:57;;;;;;;3.08;2.25;;;;;;;;;;4271829;33;20071;-82
2023/05/09 16:21:26;;;;;;;5.65;2.80;;;;;;;;;;4273477;33;20092;-72
2023/05/09 16:23:52;;;;;;;3.80;2.20;;;;;;;;;;4273764;33;20119;-74
2023/05/09 16:26:18;;;;;;;7.90;2.20;;;;;;;;;;4267099;33;20061;-72
2023/05/09 16:28:45;;;;;;;2.53;2.28;;;;;;;;;;4266754;33;20456;-72
2023/05/09 16:31:10;;;;;;;6.25;2.35;;;;;;;;;;4266334;33;20072;-79
2023/05/09 16:33:37;;;;;;;5.72;2.17;;;;;;;;;;4265416;33;20057;-72
2023/05/09 16:36:03;;;;;;;3.67;1.73;;;;;;;;;;4267620;33;20404;-73
2023/05/09 16:38:29;;;;;;;3.90;1.55;;;;;;;;;;4267744;33;20076;-73
2023/05/09 16:40:55;;;;;;;2.00;1.80;;;;;;;;;;4267609;33;20046;-73